Time;durP1;ratioP1;P1;durP2;ratioP2;P2;SDS_P1;SDS_P2;PMS_P1;PMS_P2;Temp;Humidity;BMP_temperature;BMP_pressure;BME280_temperature;BME280_humidity;BME280_pressure;Samples;Min_cycle;Max_cycle;Signal;HPM_P1;HPM_P2
2023/09/20 00:02:13;;;;;;;2.63;1.23;;;20.50;57.90;;;;;;5047612;28;20069;-54
2023/09/20 00:04:42;;;;;;;2.78;1.15;;;20.50;58.10;;;;;;5044715;28;20049;-53
2023/09/20 00:07:09;;;;;;;3.05;1.13;;;20.50;58.10;;;;;;5045970;28;20542;-52
2023/09/20 00:09:36;;;;;;;3.80;1.52;;;20.50;58.20;;;;;;5047668;28;20117;-52
2023/09/20 00:12:04;;;;;;;2.28;1.42;;;20.50;58.30;;;;;;5047904;28;20045;-53
2023/09/20 00:14:32;;;;;;;4.38;1.30;;;20.50;58.40;;;;;;5045800;28;20052;-53
2023/09/20 00:17:00;;;;;;;3.28;1.73;;;20.50;58.50;;;;;;5047206;28;20046;-53
2023/09/20 00:19:27;;;;;;;2.60;1.25;;;20.50;58.50;;;;;;5048236;28;20483;-50
2023/09/20 00:21:54;;;;;;;2.38;1.42;;;20.50;58.50;;;;;;5043759;28;20088;-52
2023/09/20 00:24:21;;;;;;;3.58;1.42;;;20.50;58.70;;;;;;5048403;28;20068;-51
2023/09/20 00:26:47;;;;;;;2.00;1.45;;;20.50;58.70;;;;;;5043701;28;20107;-53
2023/09/20 00:29:16;;;;;;;3.83;1.40;;;20.50;58.80;;;;;;5042674;28;20049;-53
2023/09/20 00:31:53;;;;;;;3.88;1.30;;;20.50;58.90;;;;;;5048526;28;20048;-53
2023/09/20 00:34:20;;;;;;;3.33;1.20;;;20.50;59.00;;;;;;5032243;28;20052;-52
2023/09/20 00:36:48;;;;;;;3.80;1.30;;;20.50;58.90;;;;;;5034807;28;20043;-51
2023/09/20 00:39:26;;;;;;;3.33;1.52;;;20.50;59.00;;;;;;5034608;28;20533;-52
2023/09/20 00:41:53;;;;;;;6.45;2.00;;;20.50;59.00;;;;;;5039146;28;20418;-51
2023/09/20 00:44:22;;;;;;;3.03;1.33;;;20.50;59.10;;;;;;5032118;28;20041;-53
2023/09/20 00:46:49;;;;;;;4.07;1.70;;;20.50;59.20;;;;;;5047349;28;20057;-51
2023/09/20 00:49:26;;;;;;;1.73;1.15;;;20.40;59.20;;;;;;5048022;28;20041;-54
2023/09/20 00:51:59;;;;;;;3.15;1.30;;;20.40;59.50;;;;;;5047400;28;20484;-54
2023/09/20 00:54:30;;;;;;;6.37;1.23;;;20.40;59.30;;;;;;5032809;28;20578;-49
2023/09/20 00:56:58;;;;;;;3.58;1.73;;;20.40;59.50;;;;;;5035745;28;20275;-53
2023/09/20 00:59:25;;;;;;;1.83;1.27;;;20.40;59.40;;;;;;5044744;28;20033;-52
2023/09/20 01:01:55;;;;;;;3.83;1.17;;;20.40;59.60;;;;;;5045940;28;20503;-52
2023/09/20 01:04:24;;;;;;;3.53;1.80;;;20.40;59.60;;;;;;5043278;28;20534;-52
2023/09/20 01:06:53;;;;;;;5.80;1.70;;;20.40;59.70;;;;;;5043462;28;20037;-53
2023/09/20 01:09:22;;;;;;;3.35;1.40;;;20.40;59.80;;;;;;5032265;28;20056;-50
2023/09/20 01:11:57;;;;;;;3.83;1.45;;;20.40;59.90;;;;;;5038369;28;20048;-53
2023/09/20 01:14:27;;;;;;;2.17;1.35;;;20.30;59.90;;;;;;5046410;28;20091;-55
2023/09/20 01:16:54;;;;;;;2.88;1.30;;;20.30;60.00;;;;;;5042953;28;20123;-53
2023/09/20 01:19:22;;;;;;;2.28;1.65;;;20.30;60.00;;;;;;5047796;28;20037;-55
2023/09/20 01:21:49;;;;;;;2.50;1.27;;;20.30;60.20;;;;;;5043261;28;20052;-53
2023/09/20 01:24:19;;;;;;;4.82;1.23;;;20.30;60.30;;;;;;5044282;28;20055;-56
2023/09/20 01:26:49;;;;;;;3.72;2.25;;;20.40;60.40;;;;;;5040248;28;20045;-51
2023/09/20 01:29:17;;;;;;;3.15;1.40;;;20.30;60.30;;;;;;5043677;28;20041;-54
2023/09/20 01:31:44;;;;;;;3.80;1.58;;;20.30;60.30;;;;;;5029767;28;20041;-51
2023/09/20 01:34:14;;;;;;;2.88;1.60;;;20.30;60.50;;;;;;5045822;28;20057;-53
2023/09/20 01:36:44;;;;;;;3.25;2.00;;;20.30;61.20;;;;;;5034000;28;20049;-53
2023/09/20 01:39:12;;;;;;;4.55;1.40;;;20.30;60.40;;;;;;5039644;28;20489;-53
2023/09/20 01:41:38;;;;;;;2.33;1.55;;;20.30;60.40;;;;;;5048745;28;20130;-56
2023/09/20 01:44:10;;;;;;;5.40;1.88;;;20.30;60.60;;;;;;5044188;28;20045;-53
2023/09/20 01:46:39;;;;;;;2.67;1.30;;;20.30;60.50;;;;;;5048466;28;20041;-51
2023/09/20 01:49:08;;;;;;;5.07;1.70;;;20.30;60.50;;;;;;5038602;28;20545;-53
2023/09/20 01:51:35;;;;;;;3.22;1.50;;;20.30;60.70;;;;;;5046741;28;20045;-52
2023/09/20 01:54:04;;;;;;;3.65;1.95;;;20.30;60.70;;;;;;5046067;28;20122;-51
2023/09/20 01:56:32;;;;;;;2.88;1.15;;;20.30;60.70;;;;;;5048398;28;20074;-52
2023/09/20 01:59:05;;;;;;;4.07;1.67;;;20.30;60.70;;;;;;5027740;28;20638;-53
2023/09/20 02:01:33;;;;;;;3.22;1.30;;;20.30;60.70;;;;;;5046118;28;20091;-53
2023/09/20 02:04:00;;;;;;;2.88;1.60;;;20.30;60.70;;;;;;5046237;28;20064;-53
2023/09/20 02:06:27;;;;;;;4.20;1.70;;;20.30;60.70;;;;;;5044241;28;20045;-53
2023/09/20 02:08:58;;;;;;;2.70;1.17;;;20.30;60.80;;;;;;5044434;28;20049;-53
2023/09/20 02:11:27;;;;;;;2.72;1.15;;;20.30;60.70;;;;;;5033685;28;20575;-53
2023/09/20 02:13:55;;;;;;;8.20;2.08;;;20.30;60.90;;;;;;5045051;28;20068;-52
2023/09/20 02:16:23;;;;;;;1.75;1.40;;;20.20;60.80;;;;;;5046486;28;20045;-53
2023/09/20 02:18:51;;;;;;;3.28;1.42;;;20.20;60.90;;;;;;5047789;28;20045;-53
2023/09/20 02:21:21;;;;;;;3.65;1.20;;;20.20;60.90;;;;;;5047509;28;20102;-54
2023/09/20 02:23:47;;;;;;;3.78;1.30;;;20.20;61.00;;;;;;5033945;28;20107;-54
2023/09/20 02:26:18;;;;;;;2.95;1.38;;;20.20;61.00;;;;;;5036937;28;20712;-53
2023/09/20 02:28:46;;;;;;;4.25;1.80;;;20.20;61.10;;;;;;5029784;28;20072;-52
2023/09/20 02:31:17;;;;;;;3.25;1.20;;;20.20;61.20;;;;;;5042161;28;20052;-53
2023/09/20 02:33:47;;;;;;;1.85;1.25;;;20.20;61.20;;;;;;5149739;23;20444;-50
2023/09/20 02:36:16;;;;;;;3.10;1.70;;;20.20;61.50;;;;;;5003235;28;20034;-51
2023/09/20 02:38:45;;;;;;;4.18;1.75;;;20.10;61.50;;;;;;5020527;28;20077;-48
2023/09/20 02:41:15;;;;;;;3.33;1.63;;;20.10;61.30;;;;;;5002460;28;20531;-51
2023/09/20 02:43:42;;;;;;;2.50;0.90;;;20.10;61.40;;;;;;5011113;28;20045;-50
2023/09/20 02:46:11;;;;;;;2.80;1.42;;;20.10;61.50;;;;;;5025529;28;20120;-50
2023/09/20 02:48:38;;;;;;;7.45;2.22;;;20.10;61.70;;;;;;5028263;28;20077;-50
2023/09/20 02:51:05;;;;;;;2.08;1.58;;;20.00;61.60;;;;;;5010641;28;20041;-51
2023/09/20 02:53:41;;;;;;;4.47;1.85;;;20.00;61.70;;;;;;5027539;28;20034;-50
2023/09/20 02:56:08;;;;;;;4.22;1.67;;;20.00;62.10;;;;;;5007667;28;20061;-50
2023/09/20 02:58:36;;;;;;;2.85;1.27;;;20.00;61.90;;;;;;5010418;28;20486;-53
2023/09/20 03:01:04;;;;;;;4.25;1.92;;;20.00;62.00;;;;;;5010946;28;20057;-51
2023/09/20 03:03:34;;;;;;;2.05;1.40;;;20.00;62.00;;;;;;5024828;28;20041;-53
2023/09/20 03:06:12;;;;;;;3.28;1.77;;;20.00;62.10;;;;;;5022205;28;20496;-52
2023/09/20 03:08:42;;;;;;;3.70;1.25;;;20.00;62.50;;;;;;5028074;28;20503;-53
2023/09/20 03:11:20;;;;;;;3.88;1.65;;;19.90;62.10;;;;;;5010602;28;20034;-52
2023/09/20 03:13:47;;;;;;;2.03;1.48;;;19.90;62.50;;;;;;5006265;28;20049;-52
2023/09/20 03:16:18;;;;;;;2.25;1.45;;;19.90;62.30;;;;;;5010917;28;20100;-52
2023/09/20 03:18:46;;;;;;;3.42;1.48;;;19.90;62.40;;;;;;5028588;28;20045;-53
2023/09/20 03:21:16;;;;;;;5.57;1.33;;;19.90;62.50;;;;;;5021284;28;20041;-53
2023/09/20 03:23:47;;;;;;;4.65;1.27;;;19.90;62.60;;;;;;5006493;28;20047;-52
2023/09/20 03:26:18;;;;;;;1.42;1.20;;;19.90;62.60;;;;;;5000259;28;20045;-53
2023/09/20 03:28:48;;;;;;;2.67;1.50;;;19.80;63.30;;;;;;5010096;28;20144;-53
2023/09/20 03:31:16;;;;;;;3.28;1.98;;;19.90;63.00;;;;;;4992270;28;20045;-53
2023/09/20 03:33:47;;;;;;;2.00;1.25;;;19.90;62.90;;;;;;5004863;28;20046;-52
2023/09/20 03:36:23;;;;;;;4.43;1.13;;;19.90;62.90;;;;;;5007423;28;20038;-53
2023/09/20 03:38:50;;;;;;;4.10;1.30;;;19.90;63.00;;;;;;5027506;28;20040;-52
2023/09/20 03:41:17;;;;;;;3.75;1.10;;;19.90;63.00;;;;;;5012832;28;20056;-52
2023/09/20 03:43:44;;;;;;;3.35;1.50;;;19.90;63.20;;;;;;5005401;28;20050;-50
2023/09/20 03:46:13;;;;;;;4.38;1.40;;;19.80;63.20;;;;;;5029961;28;20384;-51
2023/09/20 03:48:47;;;;;;;1.63;1.10;;;19.80;63.20;;;;;;5013839;28;20423;-51
2023/09/20 03:51:15;;;;;;;2.15;1.30;;;19.80;63.40;;;;;;5031320;28;20044;-51
2023/09/20 03:53:43;;;;;;;1.98;1.05;;;19.80;63.30;;;;;;5030208;28;20069;-52
2023/09/20 03:56:24;;;;;;;2.50;1.15;;;19.80;63.50;;;;;;5013558;28;20044;-50
2023/09/20 03:58:55;;;;;;;2.78;1.25;;;19.80;63.60;;;;;;5012979;28;20525;-49
2023/09/20 04:01:24;;;;;;;3.80;1.35;;;19.80;63.50;;;;;;5012189;28;20163;-54
2023/09/20 04:03:52;;;;;;;2.85;1.45;;;19.80;63.60;;;;;;5010815;28;20100;-53
2023/09/20 04:06:23;;;;;;;3.95;1.13;;;19.70;63.70;;;;;;5012515;28;20052;-52
2023/09/20 04:08:50;;;;;;;2.45;1.50;;;19.80;64.00;;;;;;5013266;28;20037;-50
2023/09/20 04:11:17;;;;;;;3.08;1.52;;;20.00;64.00;;;;;;5012398;28;20046;-53
2023/09/20 04:13:44;;;;;;;2.53;1.33;;;19.70;63.90;;;;;;5005409;28;20041;-53
2023/09/20 04:16:14;;;;;;;1.23;1.10;;;19.70;64.00;;;;;;5013172;28;20495;-49
2023/09/20 04:18:44;;;;;;;4.75;1.30;;;19.70;64.00;;;;;;5013380;28;20038;-49
2023/09/20 04:21:10;;;;;;;3.70;1.65;;;19.70;64.20;;;;;;5013524;28;20068;-51
2023/09/20 04:23:39;;;;;;;1.58;1.23;;;19.70;64.30;;;;;;5012315;28;20049;-52
2023/09/20 04:26:08;;;;;;;2.95;1.35;;;19.70;64.30;;;;;;4998782;28;20049;-50
2023/09/20 04:28:37;;;;;;;1.15;1.05;;;19.60;64.30;;;;;;5012619;28;20404;-50
2023/09/20 04:31:08;;;;;;;3.17;1.50;;;19.60;64.40;;;;;;5011995;28;20049;-53
2023/09/20 04:33:39;;;;;;;4.20;1.45;;;19.70;64.40;;;;;;5011671;28;20038;-52
2023/09/20 04:36:06;;;;;;;3.67;1.50;;;19.60;64.40;;;;;;5010165;28;20054;-50
2023/09/20 04:38:33;;;;;;;3.20;1.52;;;19.60;64.50;;;;;;5008938;28;20057;-57
2023/09/20 04:41:00;;;;;;;2.40;1.50;;;19.60;64.60;;;;;;5010926;28;20045;-53
2023/09/20 04:43:30;;;;;;;4.43;1.63;;;19.60;64.60;;;;;;5005096;28;20034;-52
2023/09/20 04:46:03;;;;;;;3.22;1.73;;;19.60;64.60;;;;;;5010664;28;20046;-49
2023/09/20 04:48:32;;;;;;;2.13;1.80;;;19.60;64.70;;;;;;5030445;28;20037;-50
2023/09/20 04:50:59;;;;;;;3.28;1.40;;;19.60;64.80;;;;;;5011846;28;20046;-49
2023/09/20 04:53:26;;;;;;;3.70;2.10;;;19.60;64.80;;;;;;5008140;28;20419;-49
2023/09/20 04:55:53;;;;;;;2.15;1.55;;;19.60;64.80;;;;;;5012616;28;20511;-49
2023/09/20 04:58:22;;;;;;;2.13;1.17;;;19.60;64.90;;;;;;5011938;28;20522;-52
2023/09/20 05:00:49;;;;;;;2.58;1.80;;;19.40;65.00;;;;;;5004428;28;20037;-53
2023/09/20 05:03:16;;;;;;;3.25;1.70;;;19.50;65.60;;;;;;5011649;28;20046;-50
2023/09/20 05:05:44;;;;;;;3.13;1.85;;;19.50;65.00;;;;;;5009836;28;20048;-52
2023/09/20 05:08:13;;;;;;;3.40;2.08;;;19.50;65.10;;;;;;5011935;28;20049;-52
2023/09/20 05:10:39;;;;;;;2.78;1.48;;;19.50;65.20;;;;;;5012970;28;20042;-52
2023/09/20 05:13:08;;;;;;;3.13;1.40;;;19.50;65.20;;;;;;5007824;28;20124;-50
2023/09/20 05:15:38;;;;;;;3.35;1.67;;;19.50;65.20;;;;;;5012314;28;20075;-53
2023/09/20 05:18:07;;;;;;;2.83;1.80;;;19.50;65.30;;;;;;5011298;28;20056;-50
2023/09/20 05:20:35;;;;;;;2.47;1.77;;;19.50;65.30;;;;;;5012516;28;20041;-51
2023/09/20 05:23:05;;;;;;;3.70;1.85;;;19.50;65.40;;;;;;5006760;28;20042;-50
2023/09/20 05:25:33;;;;;;;3.35;1.83;;;19.50;66.00;;;;;;5012314;28;20458;-52
2023/09/20 05:28:01;;;;;;;2.35;1.70;;;19.50;65.40;;;;;;5025734;28;20049;-50
2023/09/20 05:30:27;;;;;;;3.95;2.05;;;19.50;65.50;;;;;;5027875;28;20072;-50
2023/09/20 05:32:54;;;;;;;2.20;1.38;;;19.50;65.60;;;;;;5027906;28;20108;-49
2023/09/20 05:35:21;;;;;;;4.28;1.60;;;19.50;65.70;;;;;;5027767;28;20060;-51
2023/09/20 05:37:48;;;;;;;3.25;1.55;;;19.50;65.70;;;;;;5022309;28;20050;-54
2023/09/20 05:40:18;;;;;;;4.18;1.73;;;19.40;65.70;;;;;;5027554;28;20041;-53
2023/09/20 05:42:50;;;;;;;1.60;1.50;;;19.50;65.80;;;;;;5027938;28;20037;-54
2023/09/20 05:45:19;;;;;;;;;;;19.50;66.10;;;;;;5026031;28;20050;-53
2023/09/20 05:47:46;;;;;;;2.97;1.48;;;19.50;65.70;;;;;;5012401;28;19992;-53
2023/09/20 05:50:13;;;;;;;2.85;1.20;;;19.50;65.40;;;;;;5023874;28;20403;-51
2023/09/20 05:52:43;;;;;;;2.55;1.27;;;19.50;65.60;;;;;;5029849;28;20073;-53
2023/09/20 05:55:14;;;;;;;4.63;1.50;;;19.50;65.80;;;;;;5028882;28;20499;-49
2023/09/20 05:57:44;;;;;;;3.13;1.60;;;19.50;65.90;;;;;;5029294;28;20415;-52
2023/09/20 06:00:18;;;;;;;2.20;1.45;;;19.50;66.00;;;;;;5022688;28;20049;-53
2023/09/20 06:02:45;;;;;;;3.90;1.80;;;19.50;66.10;;;;;;5029873;28;20688;-49
2023/09/20 06:05:12;;;;;;;2.38;1.52;;;19.50;66.00;;;;;;5023884;28;20120;-52
2023/09/20 06:07:40;;;;;;;4.95;1.70;;;19.50;66.10;;;;;;5027605;28;20077;-49
2023/09/20 06:10:07;;;;;;;3.72;1.55;;;19.50;66.10;;;;;;5027473;28;20061;-53
2023/09/20 06:12:34;;;;;;;3.20;1.88;;;19.50;66.20;;;;;;5026230;28;20499;-52
2023/09/20 06:15:01;;;;;;;2.70;1.50;;;19.60;66.20;;;;;;5028995;28;20456;-49
2023/09/20 06:17:32;;;;;;;1.77;1.33;;;19.60;66.20;;;;;;5028454;28;20076;-53
2023/09/20 06:20:00;;;;;;;2.75;1.48;;;19.60;66.20;;;;;;5028899;28;20042;-52
2023/09/20 06:22:28;;;;;;;4.22;2.40;;;19.60;66.20;;;;;;5026709;28;20069;-50
2023/09/20 06:24:58;;;;;;;2.92;1.70;;;19.70;66.30;;;;;;5028748;28;20046;-53
2023/09/20 06:27:25;;;;;;;2.00;1.35;;;19.70;66.40;;;;;;5028554;28;20073;-50
2023/09/20 06:29:52;;;;;;;2.67;1.48;;;19.70;66.30;;;;;;5023265;28;20112;-53
2023/09/20 06:32:20;;;;;;;2.45;1.52;;;19.70;66.30;;;;;;5029238;28;20495;-51
2023/09/20 06:34:47;;;;;;;3.42;1.13;;;19.70;66.20;;;;;;5026133;28;20103;-53
2023/09/20 06:37:25;;;;;;;5.30;1.80;;;19.70;66.20;;;;;;5027913;28;20427;-52
2023/09/20 06:39:53;;;;;;;1.33;1.20;;;19.80;66.30;;;;;;5028680;28;20411;-53
2023/09/20 06:42:19;;;;;;;2.65;1.52;;;19.80;66.30;;;;;;5027735;28;20495;-52
2023/09/20 06:44:46;;;;;;;2.00;1.35;;;19.80;66.30;;;;;;5022645;28;20053;-53
2023/09/20 06:47:14;;;;;;;4.57;1.98;;;19.80;66.20;;;;;;5024901;28;20049;-51
2023/09/20 06:49:42;;;;;;;1.88;1.55;;;19.90;66.30;;;;;;5027949;28;20053;-53
2023/09/20 06:52:08;;;;;;;2.30;1.38;;;19.90;66.20;;;;;;5028034;28;20045;-54
2023/09/20 06:54:37;;;;;;;4.25;1.23;;;19.90;66.10;;;;;;5023552;28;20040;-53
2023/09/20 06:57:05;;;;;;;2.35;1.60;;;19.90;66.10;;;;;;5028540;28;20030;-51
2023/09/20 06:59:34;;;;;;;3.17;1.30;;;19.90;66.10;;;;;;5028424;28;20049;-55
2023/09/20 07:02:01;;;;;;;3.13;1.60;;;20.00;66.10;;;;;;5024472;28;20426;-52
2023/09/20 07:04:28;;;;;;;2.15;1.27;;;20.00;66.10;;;;;;5025449;28;20052;-53
2023/09/20 07:06:55;;;;;;;3.47;1.42;;;20.00;66.10;;;;;;5028173;28;20047;-50
2023/09/20 07:09:22;;;;;;;2.58;1.30;;;20.00;66.10;;;;;;5028252;28;20050;-50
2023/09/20 07:11:50;;;;;;;3.72;1.52;;;20.00;66.00;;;;;;5026315;28;20096;-52
2023/09/20 07:14:20;;;;;;;4.43;1.55;;;20.00;66.00;;;;;;5010295;28;20049;-53
2023/09/20 07:16:49;;;;;;;2.17;1.70;;;20.10;66.00;;;;;;5031637;28;20051;-49
2023/09/20 07:19:23;;;;;;;3.30;1.30;;;20.10;66.00;;;;;;5030492;28;20398;-50
2023/09/20 07:21:50;;;;;;;1.83;1.50;;;20.10;66.60;;;;;;5028630;28;20096;-51
2023/09/20 07:24:16;;;;;;;3.45;2.40;;;20.20;65.90;;;;;;5031670;28;20080;-53
2023/09/20 07:26:43;;;;;;;2.15;1.30;;;20.30;66.60;;;;;;5032098;28;20041;-54
2023/09/20 07:29:12;;;;;;;3.63;1.23;;;20.20;65.80;;;;;;5031583;28;20503;-51
2023/09/20 07:31:39;;;;;;;2.72;1.63;;;20.30;65.80;;;;;;5025492;28;20112;-54
2023/09/20 07:34:06;;;;;;;2.45;1.30;;;20.40;65.60;;;;;;5029114;28;20053;-49
2023/09/20 07:36:37;;;;;;;4.15;1.52;;;20.40;65.50;;;;;;5031821;28;20496;-53
2023/09/20 07:39:07;;;;;;;2.58;1.30;;;20.40;65.40;;;;;;5030989;28;20080;-53
2023/09/20 07:41:36;;;;;;;2.42;1.40;;;20.50;65.30;;;;;;5032868;28;20038;-53
2023/09/20 07:44:05;;;;;;;3.45;1.60;;;20.60;65.30;;;;;;5027701;28;20046;-52
2023/09/20 07:46:35;;;;;;;4.03;1.98;;;20.60;65.30;;;;;;5026265;28;20140;-54
2023/09/20 07:49:09;;;;;;;4.35;1.50;;;20.70;65.20;;;;;;5027622;28;20041;-53
2023/09/20 07:51:39;;;;;;;2.33;1.40;;;20.80;65.00;;;;;;5024912;28;20451;-52
2023/09/20 07:54:09;;;;;;;3.65;1.77;;;20.90;65.00;;;;;;5019927;28;20594;-54
2023/09/20 07:56:37;;;;;;;2.13;1.67;;;20.90;64.50;;;;;;5029956;28;20052;-51
2023/09/20 07:59:06;;;;;;;4.65;2.17;;;21.00;64.30;;;;;;5028186;28;20038;-49
2023/09/20 08:01:33;;;;;;;2.15;1.50;;;21.10;64.10;;;;;;5027190;28;20569;-54
2023/09/20 08:04:06;;;;;;;2.58;1.38;;;21.10;63.90;;;;;;5026828;28;20721;-53
2023/09/20 08:06:34;;;;;;;3.85;2.28;;;21.20;63.60;;;;;;5029352;28;20107;-49
2023/09/20 08:09:03;;;;;;;3.70;1.65;;;21.20;63.50;;;;;;5027104;28;20073;-53
2023/09/20 08:11:30;;;;;;;3.47;1.50;;;21.30;63.50;;;;;;5029625;28;20120;-53
2023/09/20 08:14:00;;;;;;;2.67;1.77;;;21.30;63.40;;;;;;5024741;28;20048;-54
2023/09/20 08:16:31;;;;;;;3.13;1.33;;;21.30;63.30;;;;;;5028078;28;20124;-54
2023/09/20 08:19:21;;;;;;;3.38;2.30;;;21.40;63.20;;;;;;5006203;28;20558;-53
2023/09/20 08:21:49;;;;;;;2.83;1.60;;;21.40;62.90;;;;;;5026412;28;20103;-50
2023/09/20 09:00:31;;;;;;;1.85;1.17;;;22.60;60.70;;;;;;5028557;28;20463;-52
2023/09/20 09:03:00;;;;;;;1.42;0.80;;;22.70;60.60;;;;;;5032988;28;20041;-52
2023/09/20 09:05:29;;;;;;;1.38;0.98;;;22.70;60.40;;;;;;5023863;28;20041;-51
2023/09/20 09:07:57;;;;;;;6.10;1.33;;;22.80;60.00;;;;;;5029868;28;20046;-50
2023/09/20 09:10:25;;;;;;;1.27;1.10;;;22.80;59.90;;;;;;5029828;28;20052;-51
2023/09/20 09:12:52;;;;;;;1.70;0.70;;;22.90;59.40;;;;;;5029076;28;20049;-52
2023/09/20 09:15:19;;;;;;;2.15;1.73;;;23.00;59.50;;;;;;5029453;28;20392;-52
2023/09/20 09:17:47;;;;;;;3.28;0.80;;;23.00;59.10;;;;;;5029671;28;20046;-50
2023/09/20 09:20:16;;;;;;;1.60;1.00;;;23.10;59.30;;;;;;5025701;28;20085;-53
2023/09/20 09:22:44;;;;;;;2.70;0.90;;;23.10;58.70;;;;;;5029955;28;20121;-51
2023/09/20 09:25:12;;;;;;;1.58;0.90;;;23.20;59.00;;;;;;5029652;28;20124;-52
2023/09/20 09:27:40;;;;;;;2.58;1.27;;;23.20;58.60;;;;;;5029446;28;20100;-52
2023/09/20 09:30:14;;;;;;;1.42;0.90;;;23.20;58.30;;;;;;5029050;28;20095;-53
2023/09/20 09:32:42;;;;;;;2.85;0.73;;;23.20;58.20;;;;;;5029700;28;20064;-52
2023/09/20 09:35:10;;;;;;;1.33;0.85;;;23.30;58.20;;;;;;5028990;28;20408;-52
2023/09/20 09:37:39;;;;;;;3.45;1.00;;;23.30;58.20;;;;;;5034362;28;20045;-53
2023/09/20 09:40:06;;;;;;;1.75;1.10;;;23.40;58.10;;;;;;5029259;28;20042;-51
2023/09/20 09:42:33;;;;;;;2.40;0.93;;;23.40;57.70;;;;;;5028320;28;20057;-53
2023/09/20 09:45:01;;;;;;;2.22;1.02;;;23.40;57.70;;;;;;5029485;28;20029;-53
2023/09/20 09:47:30;;;;;;;6.60;1.27;;;23.50;57.70;;;;;;5028947;28;20046;-52
2023/09/20 09:50:00;;;;;;;2.42;0.88;;;23.50;57.90;;;;;;5028027;28;20048;-52
2023/09/20 09:52:28;;;;;;;1.50;0.80;;;23.60;57.60;;;;;;5026991;28;20048;-54
2023/09/20 09:54:55;;;;;;;2.83;1.25;;;23.60;57.80;;;;;;5033471;28;20041;-52
2023/09/20 09:57:23;;;;;;;1.02;0.70;;;23.60;57.70;;;;;;5031167;28;20439;-54
2023/09/20 09:59:51;;;;;;;2.75;1.00;;;23.70;57.90;;;;;;5030236;28;20491;-55
2023/09/20 10:02:20;;;;;;;1.25;0.90;;;23.70;57.70;;;;;;5026948;28;20037;-53
2023/09/20 10:05:00;;;;;;;1.83;0.60;;;23.80;57.50;;;;;;5023395;28;20503;-53
2023/09/20 10:07:35;;;;;;;2.50;0.90;;;23.80;56.90;;;;;;5028553;28;20029;-52
2023/09/20 10:10:16;;;;;;;1.40;0.80;;;23.80;57.20;;;;;;5027560;28;20108;-51
2023/09/20 10:12:45;;;;;;;3.42;0.73;;;23.90;56.80;;;;;;5023202;28;20124;-53
2023/09/20 10:15:14;;;;;;;0.77;0.75;;;24.00;56.50;;;;;;5028573;28;20041;-54
2023/09/20 10:17:48;;;;;;;3.58;0.88;;;24.00;56.60;;;;;;5028316;28;20124;-52
2023/09/20 10:20:16;;;;;;;1.42;0.90;;;24.00;56.40;;;;;;5023395;28;20038;-52
2023/09/20 10:22:46;;;;;;;2.90;1.77;;;24.10;56.50;;;;;;5019691;28;20041;-52
2023/09/20 10:25:34;;;;;;;1.55;0.85;;;24.10;56.50;;;;;;5021619;28;20038;-53
2023/09/20 10:28:09;;;;;;;4.30;1.10;;;24.20;56.10;;;;;;5027512;28;20044;-52
2023/09/20 10:30:55;;;;;;;1.35;0.95;;;24.30;56.00;;;;;;5030021;28;20060;-50
2023/09/20 10:33:45;;;;;;;1.23;0.77;;;24.30;56.10;;;;;;5022903;28;20041;-53
2023/09/20 10:36:23;;;;;;;1.38;0.68;;;24.30;56.30;;;;;;5030250;28;20037;-51
2023/09/20 10:39:18;;;;;;;1.60;0.98;;;24.40;55.80;;;;;;5026676;28;20065;-53
2023/09/20 10:41:47;;;;;;;4.50;0.90;;;24.50;55.50;;;;;;5028610;28;20073;-52
2023/09/20 10:44:35;;;;;;;1.38;0.85;;;24.60;55.70;;;;;;5025492;28;20120;-49
2023/09/20 10:47:12;;;;;;;1.67;1.20;;;24.70;55.20;;;;;;5027570;28;20140;-50
2023/09/20 10:49:41;;;;;;;2.00;0.90;;;24.70;54.80;;;;;;5030018;28;20041;-49
2023/09/20 10:52:08;;;;;;;2.80;0.60;;;24.80;55.00;;;;;;5030366;28;20590;-52
2023/09/20 10:54:36;;;;;;;3.22;0.95;;;24.90;54.70;;;;;;5033161;28;20045;-51
2023/09/20 10:57:07;;;;;;;1.17;0.63;;;24.90;54.50;;;;;;5032365;28;20064;-53
2023/09/20 10:59:36;;;;;;;1.30;0.82;;;25.00;54.50;;;;;;5032619;28;20037;-53
2023/09/20 11:02:05;;;;;;;1.73;0.77;;;25.00;54.10;;;;;;5028348;28;20092;-50
2023/09/20 11:04:32;;;;;;;1.27;0.82;;;25.10;53.90;;;;;;5027711;28;20077;-53
2023/09/20 11:07:02;;;;;;;2.22;0.80;;;25.10;53.90;;;;;;5032387;28;20139;-53
2023/09/20 11:09:33;;;;;;;0.80;0.73;;;25.00;54.00;;;;;;5033108;28;20038;-53
2023/09/20 11:12:08;;;;;;;1.70;1.10;;;25.00;53.40;;;;;;5031048;28;20112;-53
2023/09/20 11:14:41;;;;;;;1.02;0.65;;;25.10;52.90;;;;;;5030694;28;20049;-53
2023/09/20 11:17:12;;;;;;;1.33;0.80;;;25.00;52.90;;;;;;5032209;28;20030;-53
2023/09/20 11:19:39;;;;;;;1.02;0.95;;;25.10;53.30;;;;;;5032201;28;20525;-52
2023/09/20 11:22:06;;;;;;;0.68;0.50;;;25.10;52.50;;;;;;5031351;28;20040;-51
2023/09/20 11:24:36;;;;;;;2.60;0.65;;;25.10;52.10;;;;;;5029105;28;20112;-54
2023/09/20 11:27:03;;;;;;;2.40;1.33;;;25.10;52.10;;;;;;5032336;28;20056;-52
2023/09/20 11:29:34;;;;;;;2.05;0.68;;;25.10;52.50;;;;;;5032142;28;20450;-54
2023/09/20 11:32:01;;;;;;;1.80;1.42;;;25.20;52.70;;;;;;5031842;28;20045;-54
2023/09/20 11:34:45;;;;;;;1.55;0.77;;;25.20;52.30;;;;;;5025547;28;20120;-53
2023/09/20 11:37:18;;;;;;;1.02;1.00;;;25.30;52.10;;;;;;5036859;28;20068;-53
2023/09/20 11:39:54;;;;;;;2.53;0.75;;;25.40;52.30;;;;;;5031627;28;20050;-53
2023/09/20 11:42:30;;;;;;;0.98;0.85;;;25.40;51.90;;;;;;5023802;28;20104;-52
2023/09/20 11:45:08;;;;;;;0.82;0.70;;;25.40;51.60;;;;;;5031825;28;20079;-53
2023/09/20 11:47:55;;;;;;;1.63;0.85;;;25.40;52.00;;;;;;5031333;28;20049;-51
2023/09/20 11:50:25;;;;;;;1.77;0.85;;;25.50;52.20;;;;;;5031353;28;20037;-51
2023/09/20 11:52:53;;;;;;;2.67;0.90;;;25.40;51.60;;;;;;5027862;28;20049;-54
2023/09/20 11:55:20;;;;;;;1.92;1.48;;;25.40;51.50;;;;;;5032876;28;20033;-54
2023/09/20 11:57:48;;;;;;;1.35;0.82;;;25.40;51.10;;;;;;5031419;28;20041;-50
2023/09/20 12:00:19;;;;;;;1.33;0.90;;;25.40;51.70;;;;;;5029380;28;20332;-52
2023/09/20 12:02:47;;;;;;;1.00;0.83;;;25.40;51.40;;;;;;5028307;28;20054;-53
2023/09/20 12:05:18;;;;;;;2.90;1.33;;;25.30;51.30;;;;;;5021306;28;20315;-54
2023/09/20 12:07:56;;;;;;;2.22;1.02;;;25.30;51.30;;;;;;5030791;28;20057;-53
2023/09/20 12:10:24;;;;;;;0.65;0.65;;;25.30;51.30;;;;;;5026556;28;20061;-49
2023/09/20 12:12:52;;;;;;;3.10;1.00;;;25.30;51.20;;;;;;5012156;28;20454;-54
2023/09/20 12:15:22;;;;;;;2.20;1.35;;;25.20;50.90;;;;;;5029698;28;20066;-53
2023/09/20 12:17:56;;;;;;;1.75;1.00;;;25.20;51.10;;;;;;5030876;28;20049;-54
2023/09/20 12:20:25;;;;;;;2.33;1.27;;;25.20;51.50;;;;;;5030726;28;20056;-50
2023/09/20 12:23:00;;;;;;;2.10;1.25;;;25.20;51.60;;;;;;5023716;28;20044;-54
2023/09/20 12:25:27;;;;;;;3.65;1.08;;;25.10;51.60;;;;;;5029184;28;20531;-51
2023/09/20 12:27:54;;;;;;;1.02;0.90;;;25.20;51.50;;;;;;5030518;28;20242;-54
2023/09/20 12:30:20;;;;;;;1.33;1.00;;;25.10;51.70;;;;;;5030700;28;20044;-53
2023/09/20 12:32:50;;;;;;;1.50;0.95;;;25.10;51.40;;;;;;5030371;28;20641;-53
2023/09/20 12:35:17;;;;;;;2.47;1.00;;;25.20;51.40;;;;;;5026389;28;20043;-54
2023/09/20 12:37:44;;;;;;;2.55;1.35;;;25.20;51.40;;;;;;5033637;28;20128;-53
2023/09/20 12:40:11;;;;;;;1.83;0.80;;;25.20;51.40;;;;;;5031249;28;20057;-54
2023/09/20 12:42:38;;;;;;;1.30;1.05;;;25.30;51.60;;;;;;5030201;28;20052;-51
2023/09/20 12:45:08;;;;;;;3.90;1.30;;;25.30;51.60;;;;;;5028741;28;20128;-54
2023/09/20 12:47:41;;;;;;;1.20;1.10;;;25.40;51.20;;;;;;5035203;28;20041;-54
2023/09/20 12:50:12;;;;;;;1.55;0.90;;;25.40;52.00;;;;;;5035048;28;20038;-54
2023/09/20 12:52:39;;;;;;;2.50;1.00;;;25.50;51.60;;;;;;5026864;28;20056;-54
2023/09/20 12:55:07;;;;;;;2.38;1.02;;;25.60;51.10;;;;;;5031053;28;20049;-53
2023/09/20 12:57:34;;;;;;;1.13;1.02;;;25.70;50.50;;;;;;5030141;28;20049;-54
2023/09/20 13:00:02;;;;;;;2.45;1.40;;;25.80;50.40;;;;;;5030447;28;20420;-54
2023/09/20 13:02:29;;;;;;;1.95;1.00;;;25.90;50.00;;;;;;5026408;28;20041;-54
2023/09/20 13:04:59;;;;;;;1.80;0.88;;;26.00;49.60;;;;;;5032476;28;20045;-55
2023/09/20 13:07:26;;;;;;;1.15;0.95;;;26.10;49.70;;;;;;5020939;28;20586;-54
2023/09/20 13:09:55;;;;;;;3.22;1.48;;;26.20;49.00;;;;;;5038771;28;20044;-54
2023/09/20 13:12:21;;;;;;;1.85;1.13;;;26.30;48.60;;;;;;5026728;28;20482;-53
2023/09/20 13:14:48;;;;;;;2.45;1.00;;;26.40;48.10;;;;;;5028962;28;20045;-54
2023/09/20 13:17:15;;;;;;;1.90;1.00;;;26.50;48.60;;;;;;5030341;28;20052;-53
2023/09/20 13:19:42;;;;;;;2.30;1.08;;;26.60;49.20;;;;;;5028313;28;20100;-53
2023/09/20 13:22:09;;;;;;;2.45;1.17;;;26.70;48.40;;;;;;5027269;28;20037;-52
2023/09/20 13:24:39;;;;;;;1.40;0.90;;;26.70;48.70;;;;;;5031406;28;20503;-54
2023/09/20 13:27:06;;;;;;;1.50;1.38;;;26.80;47.90;;;;;;5030313;28;20056;-54
2023/09/20 13:29:35;;;;;;;0.82;0.82;;;27.00;47.10;;;;;;5029822;28;20073;-54
2023/09/20 13:32:08;;;;;;;1.02;0.80;;;27.00;47.80;;;;;;5025666;28;20072;-54
2023/09/20 13:34:35;;;;;;;1.23;1.10;;;27.10;46.70;;;;;;5023587;28;20057;-54
2023/09/20 13:37:01;;;;;;;2.85;1.45;;;27.30;47.10;;;;;;5027390;28;20048;-54